BHT weather

Blackheath - NPWS Helipad
Blackheath - NPWS, New South Wales, Australia

Public forecast

Using degrees Celsius for public forecast. Weather courtesy of forecast.io.

METAR (pilot weather report)

Closest report is RAAF Base Richmond, 23.8 nm (44.0 km) E. Retrieved 2019/04/24 23:30 UTC (26 minutes ago):

YSRI 242330Z AUTO 06003KT 9999 // NCD 21/16 Q1020 RF00.0/000.0

TAF (pilot weather forecast)

Forecast is more than 6 hours old.

Closest forecast is RAAF Base Richmond, 23.8 nm (44.0 km) E. Retrieved 2019/04/24 12:37 UTC (11 hours ago):

TAF YSRI 241114Z 2412/2512 VRB03KT CAVOK FM241700 VRB03KT 0200 FG OVC001 BECMG 2422/2424 VRB03KT 9999 FEW010 FM250200 08008KT CAVOK FM251000 VRB03KT CAVOK PROB30 2414/2417 0200 FG BKN001